Time;durP1;ratioP1;P1;durP2;ratioP2;P2;SDS_P1;SDS_P2;PMS_P1;PMS_P2;Temp;Humidity;BMP_temperature;BMP_pressure;BME280_temperature;BME280_humidity;BME280_pressure;Samples;Min_cycle;Max_cycle;Signal;HPM_P1;HPM_P2
2022/01/03 00:01:14;;;;;;;5.20;0.75;;;10.40;85.10;;;;;;6123698;23;92880;-71
2022/01/03 00:03:41;;;;;;;4.00;0.80;;;10.40;85.10;;;;;;6123928;23;92389;-71
2022/01/03 00:06:08;;;;;;;4.57;0.90;;;10.40;85.10;;;;;;6148066;22;92931;-71
2022/01/03 00:08:36;;;;;;;4.45;1.50;;;10.40;85.10;;;;;;6124666;23;92855;-71
2022/01/03 00:11:03;;;;;;;5.93;1.20;;;10.40;85.50;;;;;;6124837;23;93287;-71
2022/01/03 00:13:30;;;;;;;8.52;1.60;;;10.40;85.60;;;;;;6123863;23;91773;-71
2022/01/03 00:15:57;;;;;;;6.47;1.77;;;10.40;85.90;;;;;;6124836;23;92378;-71
2022/01/03 00:18:24;;;;;;;8.35;2.70;;;10.40;85.80;;;;;;6098270;23;94085;-71
2022/01/03 00:20:59;;;;;;;8.57;1.65;;;10.50;85.80;;;;;;6096522;23;95581;-71
2022/01/03 00:23:29;;;;;;;7.28;1.63;;;10.60;85.80;;;;;;6125122;23;92358;-71
2022/01/03 00:26:00;;;;;;;7.93;2.10;;;10.60;85.60;;;;;;6125085;23;92438;-71
2022/01/03 00:28:35;;;;;;;6.55;2.15;;;10.60;85.30;;;;;;6125178;23;93444;-71
2022/01/03 00:31:04;;;;;;;10.65;2.70;;;10.60;85.30;;;;;;6147774;22;92606;-70
2022/01/03 00:33:32;;;;;;;9.63;2.67;;;10.60;85.00;;;;;;6125083;23;92469;-72
2022/01/03 00:36:02;;;;;;;9.13;2.40;;;10.70;85.20;;;;;;6124584;23;96804;-72
2022/01/03 00:38:34;;;;;;;10.00;2.15;;;10.70;84.80;;;;;;6123663;23;95088;-72
2022/01/03 00:41:01;;;;;;;12.70;2.25;;;10.70;84.80;;;;;;6124541;23;92441;-72
2022/01/03 00:43:29;;;;;;;11.38;2.33;;;10.80;84.80;;;;;;6099135;23;92507;-72
2022/01/03 00:45:57;;;;;;;5.80;2.03;;;10.80;84.80;;;;;;6146244;22;95107;-72
2022/01/03 00:48:24;;;;;;;7.85;2.13;;;10.80;84.60;;;;;;6122743;23;94119;-72
2022/01/03 00:50:52;;;;;;;7.65;1.75;;;10.90;84.60;;;;;;6122483;23;95400;-72
2022/01/03 00:53:19;;;;;;;12.23;2.65;;;10.90;84.50;;;;;;6122760;23;92476;-72
2022/01/03 00:56:09;;;;;;;11.43;2.65;;;10.90;84.40;;;;;;6125045;23;92769;-72
2022/01/03 00:58:45;;;;;;;16.38;2.75;;;10.90;84.20;;;;;;6106276;23;93122;-72
2022/01/03 01:01:14;;;;;;;10.88;2.25;;;10.90;84.30;;;;;;6148105;22;93294;-72
2022/01/03 01:03:42;;;;;;;10.15;2.50;;;10.90;84.00;;;;;;6123495;23;91729;-72
2022/01/03 01:06:10;;;;;;;13.32;2.42;;;10.90;84.10;;;;;;6098890;23;92552;-72
2022/01/03 01:08:38;;;;;;;13.57;2.65;;;11.00;83.60;;;;;;6122973;23;95812;-72
2022/01/03 01:11:08;;;;;;;9.90;2.33;;;11.00;83.50;;;;;;6120620;23;95935;-72
2022/01/03 01:13:36;;;;;;;11.57;2.60;;;11.00;83.10;;;;;;6123510;23;92332;-72
2022/01/03 01:16:06;;;;;;;12.63;2.70;;;11.00;83.20;;;;;;6125043;23;92549;-72
2022/01/03 01:18:40;;;;;;;12.32;2.58;;;11.00;83.40;;;;;;6098055;23;95207;-72
2022/01/03 01:21:07;;;;;;;7.25;2.20;;;11.10;83.30;;;;;;6124773;23;92624;-72
2022/01/03 01:23:37;;;;;;;12.05;2.00;;;11.00;83.10;;;;;;6125179;23;92407;-72
2022/01/03 01:28:50;;;;;;;20.30;2.55;;;11.10;83.00;;;;;;6123359;23;94705;-72
2022/01/03 01:31:20;;;;;;;16.58;3.00;;;11.10;83.00;;;;;;6098167;23;93646;-72
2022/01/03 01:33:52;;;;;;;15.10;2.80;;;11.10;83.00;;;;;;6123228;23;92801;-72
2022/01/03 01:36:23;;;;;;;14.65;3.20;;;11.10;82.70;;;;;;6096974;23;94855;-72
2022/01/03 01:38:52;;;;;;;20.33;3.25;;;11.20;83.00;;;;;;6147245;22;95456;-72
2022/01/03 01:41:22;;;;;;;15.68;3.00;;;11.10;82.40;;;;;;6097762;23;95385;-72
2022/01/03 01:43:57;;;;;;;12.45;2.50;;;11.10;82.60;;;;;;6098026;23;92451;-72
2022/01/03 01:46:25;;;;;;;15.88;2.70;;;11.10;82.40;;;;;;6123069;23;92480;-72
2022/01/03 01:49:05;;;;;;;17.58;2.95;;;11.10;82.50;;;;;;6124458;23;92437;-72
2022/01/03 01:51:34;;;;;;;14.45;3.20;;;11.10;82.40;;;;;;6146927;22;95345;-72
2022/01/03 01:54:05;;;;;;;18.13;3.60;;;11.20;82.20;;;;;;6114934;23;91706;-72
2022/01/03 01:57:06;;;;;;;17.40;3.00;;;11.20;82.20;;;;;;6118658;23;92509;-72
2022/01/03 01:59:45;;;;;;;16.13;3.75;;;11.20;82.30;;;;;;6090977;23;95427;-72
2022/01/03 02:02:16;;;;;;;14.25;2.65;;;11.20;82.20;;;;;;6091741;23;95345;-72
2022/01/03 02:05:07;;;;;;;16.13;3.17;;;11.20;82.20;;;;;;6070405;23;92564;-72
2022/01/03 02:07:53;;;;;;;14.20;3.47;;;11.20;82.20;;;;;;6095095;23;92394;-72
2022/01/03 02:10:27;;;;;;;19.40;3.47;;;11.20;81.80;;;;;;6092759;23;95687;-72
2022/01/03 02:12:56;;;;;;;11.32;3.40;;;11.20;81.90;;;;;;6092596;23;95392;-72
2022/01/03 02:15:31;;;;;;;16.67;3.13;;;11.20;81.80;;;;;;6069925;23;92453;-72
2022/01/03 02:17:59;;;;;;;15.23;2.78;;;11.20;81.80;;;;;;6092825;23;92398;-72
2022/01/03 02:20:27;;;;;;;17.58;3.13;;;11.20;81.70;;;;;;6118059;23;94973;-72
2022/01/03 02:23:02;;;;;;;14.85;3.00;;;11.30;81.60;;;;;;6092863;23;92458;-73
2022/01/03 02:25:32;;;;;;;14.82;2.90;;;11.20;81.60;;;;;;6093108;23;92455;-72
2022/01/03 02:27:59;;;;;;;16.98;3.58;;;11.30;81.50;;;;;;6115866;23;95420;-72
2022/01/03 02:30:31;;;;;;;21.48;3.70;;;11.20;81.60;;;;;;6068756;23;94100;-72
2022/01/03 02:32:58;;;;;;;13.82;2.72;;;11.20;81.60;;;;;;6117104;23;93834;-72
2022/01/03 02:35:27;;;;;;;14.55;3.67;;;11.20;81.40;;;;;;6092772;23;92408;-72
2022/01/03 02:37:54;;;;;;;21.98;3.78;;;11.20;81.80;;;;;;6117517;23;92582;-72
2022/01/03 02:40:23;;;;;;;15.60;3.42;;;11.20;81.60;;;;;;6068340;23;95248;-72
2022/01/03 02:42:53;;;;;;;18.38;3.97;;;11.30;81.40;;;;;;6093246;23;95243;-72
2022/01/03 02:45:24;;;;;;;11.35;2.78;;;11.30;81.20;;;;;;6092844;23;91833;-72
2022/01/03 02:47:57;;;;;;;15.15;2.70;;;11.30;81.30;;;;;;6117229;23;92403;-73
2022/01/03 02:50:27;;;;;;;17.15;3.15;;;11.30;81.20;;;;;;6092452;23;95298;-72
2022/01/03 02:52:55;;;;;;;16.98;3.92;;;11.30;81.10;;;;;;6091064;23;96044;-72
2022/01/03 02:55:26;;;;;;;19.65;3.40;;;11.30;81.10;;;;;;6068751;23;92507;-72
2022/01/03 02:57:58;;;;;;;15.27;3.25;;;11.30;80.90;;;;;;6118158;23;92444;-72
2022/01/03 03:00:30;;;;;;;18.88;3.55;;;11.30;80.90;;;;;;6069965;23;94260;-70
2022/01/03 03:02:58;;;;;;;18.38;3.75;;;11.30;81.10;;;;;;6117663;23;94137;-70
2022/01/03 03:05:26;;;;;;;18.80;4.03;;;11.30;81.10;;;;;;6093165;23;92533;-72
2022/01/03 03:07:53;;;;;;;17.38;3.05;;;11.30;80.90;;;;;;6093099;23;92503;-72
2022/01/03 03:10:24;;;;;;;16.83;3.72;;;11.30;80.70;;;;;;6092901;23;94686;-72
2022/01/03 03:12:54;;;;;;;16.98;2.97;;;11.30;80.60;;;;;;6093189;23;93222;-72
2022/01/03 03:15:23;;;;;;;13.68;2.95;;;11.30;80.60;;;;;;6092903;23;92393;-72
2022/01/03 03:17:51;;;;;;;14.15;2.47;;;11.20;80.70;;;;;;6116350;23;94837;-72
2022/01/03 03:20:22;;;;;;;16.58;2.78;;;11.20;80.60;;;;;;6068162;23;95663;-72
2022/01/03 03:22:50;;;;;;;17.35;3.88;;;11.20;80.70;;;;;;6094678;23;92857;-72
2022/01/03 03:25:31;;;;;;;13.88;3.30;;;11.20;80.50;;;;;;6117635;23;92819;-72
2022/01/03 03:28:06;;;;;;;13.73;3.95;;;11.20;80.40;;;;;;6093171;23;92468;-72
2022/01/03 03:30:37;;;;;;;18.05;3.38;;;11.20;80.40;;;;;;6094515;23;92953;-72
2022/01/03 03:33:14;;;;;;;18.33;3.20;;;11.20;80.30;;;;;;6092688;23;94083;-72
2022/01/03 03:35:46;;;;;;;21.70;3.78;;;11.20;80.20;;;;;;6118315;23;91687;-72
2022/01/03 03:38:14;;;;;;;11.95;3.13;;;11.10;80.40;;;;;;6117335;23;92499;-72
2022/01/03 03:40:45;;;;;;;16.48;3.90;;;11.10;80.60;;;;;;6093873;23;95725;-73
2022/01/03 03:43:14;;;;;;;14.18;3.10;;;11.10;81.00;;;;;;6092223;23;94845;-72
2022/01/03 03:45:43;;;;;;;16.63;2.95;;;11.00;80.70;;;;;;6118838;23;92441;-73
2022/01/03 03:48:10;;;;;;;23.58;4.07;;;11.10;80.40;;;;;;6094058;23;92443;-72
2022/01/03 03:50:38;;;;;;;16.63;3.05;;;11.00;80.50;;;;;;6069425;23;95408;-72
2022/01/03 03:53:05;;;;;;;19.05;3.10;;;10.90;80.70;;;;;;6105140;23;93777;-72
2022/01/03 03:55:33;;;;;;;19.20;3.92;;;10.90;80.70;;;;;;6126038;23;92875;-72
2022/01/03 03:58:02;;;;;;;16.45;2.97;;;10.80;80.80;;;;;;6148597;22;92498;-72
2022/01/03 04:00:30;;;;;;;17.65;3.83;;;10.80;80.90;;;;;;6074618;23;95114;-72
2022/01/03 04:03:01;;;;;;;16.75;3.33;;;10.80;81.30;;;;;;6098708;23;94407;-72
2022/01/03 04:05:30;;;;;;;23.75;3.63;;;10.80;81.10;;;;;;6123258;23;92659;-72
2022/01/03 04:07:57;;;;;;;20.25;3.85;;;10.80;81.10;;;;;;6097840;23;94948;-72
2022/01/03 04:10:24;;;;;;;20.83;3.08;;;10.70;81.10;;;;;;6122645;23;95562;-72
2022/01/03 04:12:51;;;;;;;16.50;3.03;;;10.70;81.40;;;;;;6123688;23;96095;-72
2022/01/03 04:15:19;;;;;;;24.88;3.85;;;10.70;81.40;;;;;;6074808;23;92724;-72
2022/01/03 04:17:48;;;;;;;15.93;2.95;;;10.70;81.50;;;;;;6125547;23;92436;-72
2022/01/03 04:20:18;;;;;;;20.58;3.03;;;10.70;81.50;;;;;;6123063;23;95498;-72
2022/01/03 04:22:47;;;;;;;18.55;3.55;;;10.70;81.70;;;;;;6074344;23;95707;-72
2022/01/03 04:25:15;;;;;;;16.25;2.97;;;10.70;81.50;;;;;;6148944;22;91646;-72
2022/01/03 04:27:44;;;;;;;16.17;3.00;;;10.80;81.60;;;;;;6074610;23;92483;-72
2022/01/03 04:30:12;;;;;;;24.63;3.88;;;10.80;81.20;;;;;;6098816;23;95354;-72
2022/01/03 04:32:40;;;;;;;20.23;3.53;;;10.80;81.40;;;;;;6097186;23;95452;-72
2022/01/03 04:35:07;;;;;;;18.88;4.30;;;10.80;81.50;;;;;;6098714;23;92467;-72
2022/01/03 04:37:34;;;;;;;26.90;4.10;;;10.80;81.40;;;;;;6098485;23;92472;-72
2022/01/03 04:40:03;;;;;;;21.15;4.20;;;10.80;81.60;;;;;;6074593;23;96061;-72
2022/01/03 04:42:30;;;;;;;27.67;4.28;;;10.90;81.30;;;;;;6122854;23;95646;-72
2022/01/03 04:44:57;;;;;;;21.02;3.55;;;10.90;81.40;;;;;;6123586;23;92775;-72
2022/01/03 04:47:24;;;;;;;16.88;3.08;;;10.90;81.00;;;;;;6123352;23;92468;-72
2022/01/03 04:49:51;;;;;;;22.40;3.75;;;10.90;81.00;;;;;;6125703;23;92168;-72
2022/01/03 04:52:18;;;;;;;16.83;3.58;;;11.00;81.10;;;;;;6122734;23;94409;-72
2022/01/03 04:54:45;;;;;;;15.82;3.30;;;11.00;80.70;;;;;;6096990;23;92563;-70
2022/01/03 04:57:12;;;;;;;16.00;3.00;;;11.00;80.40;;;;;;6095778;23;94852;-70
2022/01/03 04:59:40;;;;;;;18.27;4.47;;;11.00;80.40;;;;;;6120972;23;95442;-74
2022/01/03 05:02:07;;;;;;;15.35;3.20;;;11.00;80.30;;;;;;6096814;23;95230;-75
2022/01/03 05:04:34;;;;;;;23.15;4.13;;;11.00;80.80;;;;;;6121675;23;92405;-74
2022/01/03 05:07:03;;;;;;;21.02;3.50;;;11.10;80.80;;;;;;6146868;22;92279;-74
2022/01/03 05:09:31;;;;;;;19.02;3.75;;;11.10;80.50;;;;;;6096662;23;94214;-74
2022/01/03 05:11:58;;;;;;;19.00;3.47;;;11.10;80.40;;;;;;6096673;23;95497;-74
2022/01/03 05:14:25;;;;;;;22.15;4.18;;;11.10;79.90;;;;;;6048194;23;94299;-74
2022/01/03 05:16:53;;;;;;;21.63;3.88;;;11.10;79.40;;;;;;6097454;23;92752;-75
2022/01/03 05:19:21;;;;;;;20.25;4.80;;;11.10;79.70;;;;;;6096176;23;95707;-75
2022/01/03 05:21:48;;;;;;;26.55;4.43;;;11.10;79.80;;;;;;6121699;23;94830;-77
2022/01/03 05:24:19;;;;;;;20.55;4.03;;;11.10;79.80;;;;;;6073299;23;92403;-75
2022/01/03 05:26:46;;;;;;;23.80;4.05;;;11.00;80.40;;;;;;6121693;22;92443;-75
2022/01/03 05:29:15;;;;;;;22.20;5.32;;;11.00;80.00;;;;;;6096934;23;95017;-75
2022/01/03 05:31:46;;;;;;;24.15;5.07;;;11.00;80.80;;;;;;6050170;23;94006;-75
2022/01/03 05:34:14;;;;;;;14.65;3.83;;;11.00;80.90;;;;;;6072369;23;92622;-77
2022/01/03 05:36:41;;;;;;;15.68;3.80;;;11.00;80.90;;;;;;6096803;23;92495;-75
2022/01/03 05:39:09;;;;;;;21.83;4.60;;;11.00;80.60;;;;;;6121315;23;94882;-75
2022/01/03 05:41:36;;;;;;;18.42;4.38;;;11.00;80.50;;;;;;6122673;23;92437;-75
2022/01/03 05:44:04;;;;;;;24.10;5.57;;;11.00;80.80;;;;;;6072692;23;92408;-75
2022/01/03 05:46:32;;;;;;;28.15;4.72;;;11.00;80.60;;;;;;6119502;23;95030;-75
2022/01/03 05:48:59;;;;;;;21.77;4.18;;;11.00;80.80;;;;;;6121443;22;95806;-75
2022/01/03 05:51:27;;;;;;;20.33;3.72;;;11.00;80.50;;;;;;6120604;23;94809;-75
2022/01/03 05:53:54;;;;;;;19.65;3.38;;;11.00;81.00;;;;;;6046231;23;1189640;-75
2022/01/03 05:56:22;;;;;;;21.33;4.82;;;11.00;80.60;;;;;;6122799;23;92546;-75
2022/01/03 05:58:49;;;;;;;31.48;4.68;;;11.00;80.70;;;;;;6122334;22;95869;-75
2022/01/03 06:01:16;;;;;;;21.23;4.18;;;11.00;80.80;;;;;;6098296;23;92626;-76
2022/01/03 06:03:43;;;;;;;20.02;3.60;;;11.00;81.00;;;;;;6097089;23;102347;-76
2022/01/03 06:08:39;;;;;;;21.38;4.38;;;11.10;80.50;;;;;;6122140;23;94160;-75
2022/01/03 06:11:06;;;;;;;21.98;3.92;;;11.10;80.60;;;;;;6096591;23;95288;-76
2022/01/03 06:13:34;;;;;;;24.48;3.47;;;11.10;80.40;;;;;;6097923;23;92471;-75
2022/01/03 06:16:02;;;;;;;23.40;4.00;;;11.10;80.60;;;;;;6122827;23;92927;-75
2022/01/03 06:18:32;;;;;;;16.80;3.20;;;11.10;80.60;;;;;;6097352;23;95266;-76
2022/01/03 06:21:03;;;;;;;23.52;4.38;;;11.10;80.10;;;;;;6122678;23;95053;-75
2022/01/03 06:23:35;;;;;;;24.15;3.97;;;11.20;80.60;;;;;;6122714;23;92378;-75
2022/01/03 06:26:02;;;;;;;24.77;4.60;;;11.20;81.20;;;;;;6124523;23;92307;-76
2022/01/03 06:28:42;;;;;;;22.65;3.75;;;11.20;80.50;;;;;;6122310;23;94305;-75
2022/01/03 06:31:10;;;;;;;20.48;4.40;;;11.10;80.40;;;;;;6097560;23;94347;-75
2022/01/03 06:33:37;;;;;;;26.85;4.28;;;11.20;80.80;;;;;;6097928;23;92486;-71
2022/01/03 06:36:05;;;;;;;31.48;5.22;;;11.20;80.20;;;;;;6123050;23;94831;-71
2022/01/03 06:38:32;;;;;;;17.08;4.13;;;11.10;80.00;;;;;;6097279;23;95534;-71
2022/01/03 06:40:59;;;;;;;32.47;5.45;;;11.10;80.20;;;;;;6097726;23;95311;-71
2022/01/03 06:43:26;;;;;;;18.77;3.70;;;11.10;80.30;;;;;;6097987;23;92892;-70
2022/01/03 06:45:53;;;;;;;24.48;4.70;;;11.10;80.00;;;;;;6097667;23;92477;-71
2022/01/03 06:48:20;;;;;;;26.58;4.55;;;11.10;79.90;;;;;;6097980;23;92889;-71
2022/01/03 06:50:47;;;;;;;19.95;4.05;;;11.10;79.90;;;;;;6072921;23;95135;-71
2022/01/03 06:53:14;;;;;;;21.13;3.70;;;11.10;80.20;;;;;;6122743;23;91602;-71
2022/01/03 06:55:42;;;;;;;30.42;4.85;;;11.10;80.40;;;;;;6122260;23;92595;-76
2022/01/03 06:58:09;;;;;;;26.73;4.68;;;11.10;80.30;;;;;;6097697;23;95326;-75
2022/01/03 07:00:36;;;;;;;27.45;4.72;;;11.10;80.20;;;;;;6071388;23;95549;-71
2022/01/03 07:03:03;;;;;;;18.60;4.65;;;11.10;79.90;;;;;;6073925;23;92524;-71
2022/01/03 07:05:31;;;;;;;23.23;4.00;;;11.10;80.20;;;;;;6124787;23;92718;-71
2022/01/03 07:07:59;;;;;;;19.13;3.67;;;11.10;79.90;;;;;;6123915;23;92890;-71
2022/01/03 07:10:26;;;;;;;28.88;4.72;;;11.10;79.80;;;;;;6098023;23;92693;-71
2022/01/03 07:12:54;;;;;;;23.45;4.25;;;11.20;79.90;;;;;;6124087;23;92509;-71
2022/01/03 07:20:53;;;;;;;21.33;4.50;;;11.20;79.60;;;;;;6121977;23;95768;-71
2022/01/03 07:23:21;;;;;;;20.98;4.22;;;11.20;79.50;;;;;;6098038;23;92540;-71
2022/01/03 07:25:51;;;;;;;31.55;5.00;;;11.20;79.80;;;;;;6122237;23;94689;-72
2022/01/03 07:28:19;;;;;;;25.80;3.90;;;11.20;79.70;;;;;;6124109;23;92453;-71
2022/01/03 07:30:46;;;;;;;19.88;3.92;;;11.20;79.80;;;;;;6097370;23;92887;-72
2022/01/03 07:33:13;;;;;;;19.50;4.43;;;11.20;79.70;;;;;;6124293;23;92391;-71
2022/01/03 07:35:40;;;;;;;30.02;5.03;;;11.20;79.80;;;;;;6096847;23;106907;-73
2022/01/03 07:38:07;;;;;;;25.38;4.28;;;11.20;79.80;;;;;;6124149;23;92995;-72
2022/01/03 07:40:35;;;;;;;22.67;5.20;;;11.20;79.90;;;;;;6124254;23;92733;-72
2022/01/03 07:43:02;;;;;;;21.98;4.30;;;11.20;79.60;;;;;;6124190;23;91677;-71
2022/01/03 07:45:29;;;;;;;30.35;5.07;;;11.30;79.40;;;;;;6122103;23;92546;-72
2022/01/03 07:47:56;;;;;;;23.95;4.40;;;11.20;79.40;;;;;;6123574;23;93066;-71
2022/01/03 07:50:23;;;;;;;25.75;3.95;;;11.20;79.50;;;;;;6122371;23;94763;-72
2022/01/03 07:52:50;;;;;;;22.85;5.07;;;11.20;79.70;;;;;;6121751;23;92464;-71
2022/01/03 07:55:17;;;;;;;22.65;4.32;;;11.20;79.70;;;;;;6098230;23;92571;-72
2022/01/03 07:57:45;;;;;;;24.17;5.13;;;11.10;79.80;;;;;;6123615;23;92907;-72
2022/01/03 08:00:15;;;;;;;22.73;4.32;;;11.10;79.50;;;;;;6146829;22;93857;-72
2022/01/03 08:02:42;;;;;;;21.02;3.97;;;11.10;79.70;;;;;;6124501;23;92375;-72
2022/01/03 08:05:13;;;;;;;18.50;3.30;;;11.10;79.60;;;;;;6122498;23;92987;-71
2022/01/03 08:07:42;;;;;;;18.45;3.15;;;11.00;79.80;;;;;;6124201;23;92244;-71
2022/01/03 08:10:10;;;;;;;21.45;3.50;;;10.90;80.40;;;;;;6123131;23;99867;-71
2022/01/03 08:12:37;;;;;;;24.15;3.88;;;10.90;80.40;;;;;;6123968;23;92780;-71
2022/01/03 08:15:05;;;;;;;23.92;4.72;;;10.90;81.30;;;;;;6120228;23;94919;-71
2022/01/03 08:17:33;;;;;;;25.55;4.43;;;10.90;81.10;;;;;;6123624;23;92897;-71
2022/01/03 08:20:02;;;;;;;28.92;4.68;;;10.90;81.00;;;;;;6123326;23;92692;-71
2022/01/03 08:22:29;;;;;;;22.60;4.50;;;11.00;81.00;;;;;;6123888;23;92288;-71
2022/01/03 08:24:56;;;;;;;21.73;4.45;;;11.00;80.70;;;;;;6097267;23;92891;-71
2022/01/03 08:27:23;;;;;;;24.27;3.83;;;11.10;80.30;;;;;;6124798;23;92473;-75
2022/01/03 08:29:50;;;;;;;27.45;4.30;;;11.10;80.40;;;;;;6073717;23;93920;-75
2022/01/03 08:32:17;;;;;;;25.77;4.47;;;11.20;80.50;;;;;;6125656;23;91602;-75
2022/01/03 08:34:44;;;;;;;20.88;4.20;;;11.20;80.30;;;;;;6099280;23;92870;-75
2022/01/03 08:37:11;;;;;;;29.33;5.35;;;11.20;80.20;;;;;;6124308;23;94052;-75
2022/01/03 08:39:38;;;;;;;23.35;4.30;;;11.30;80.00;;;;;;6096396;23;108585;-75
2022/01/03 08:42:05;;;;;;;18.45;4.32;;;11.30;79.80;;;;;;6049987;23;92418;-71
2022/01/03 08:44:32;;;;;;;25.75;3.63;;;11.30;79.80;;;;;;6099197;23;92870;-71
2022/01/03 08:46:59;;;;;;;24.55;4.82;;;11.40;79.50;;;;;;6124875;23;92722;-71
2022/01/03 08:49:26;;;;;;;26.25;4.47;;;11.40;79.60;;;;;;6124941;23;92843;-71
2022/01/03 08:51:53;;;;;;;30.00;4.95;;;11.40;79.50;;;;;;6125020;23;92434;-71
2022/01/03 08:54:20;;;;;;;29.45;4.45;;;11.40;79.40;;;;;;6124880;23;92471;-71
2022/01/03 08:56:47;;;;;;;26.23;4.72;;;11.50;79.00;;;;;;6123563;23;92325;-71
2022/01/03 08:59:14;;;;;;;23.77;4.15;;;11.50;78.80;;;;;;6124669;23;92302;-71
2022/01/03 09:01:41;;;;;;;15.35;3.20;;;11.60;78.30;;;;;;6125204;23;92876;-71
2022/01/03 09:04:08;;;;;;;24.70;4.68;;;11.60;77.90;;;;;;6123379;23;94830;-71
2022/01/03 09:06:35;;;;;;;24.80;4.85;;;11.60;77.70;;;;;;6124629;23;93092;-71
2022/01/03 09:09:03;;;;;;;24.67;4.63;;;11.60;77.50;;;;;;6122708;23;104024;-71
2022/01/03 09:11:30;;;;;;;25.42;3.92;;;11.70;77.50;;;;;;6124929;23;92427;-72
2022/01/03 09:13:57;;;;;;;20.45;4.60;;;11.70;77.10;;;;;;6124347;23;92416;-71
2022/01/03 09:16:25;;;;;;;18.80;3.47;;;11.70;77.60;;;;;;6124596;23;93007;-71
2022/01/03 09:18:52;;;;;;;20.52;4.07;;;11.70;76.90;;;;;;6124629;23;92445;-72
2022/01/03 09:21:19;;;;;;;22.77;3.38;;;11.70;77.10;;;;;;6125276;23;91671;-71
2022/01/03 09:23:51;;;;;;;18.25;4.10;;;11.80;77.00;;;;;;6124762;23;92379;-71
2022/01/03 09:29:04;;;;;;;21.75;3.92;;;11.80;76.90;;;;;;6122634;23;95915;-72
2022/01/03 09:31:35;;;;;;;16.85;3.20;;;11.80;76.60;;;;;;6098844;23;92978;-72
2022/01/03 09:34:05;;;;;;;17.55;3.35;;;11.90;76.60;;;;;;6124751;23;92937;-71
2022/01/03 09:36:33;;;;;;;20.10;4.20;;;11.90;76.80;;;;;;6124407;23;93156;-71
2022/01/03 09:39:02;;;;;;;22.95;5.13;;;11.90;76.70;;;;;;6123861;23;98875;-72
2022/01/03 09:41:32;;;;;;;18.98;4.15;;;11.90;76.70;;;;;;6124938;23;92847;-72
2022/01/03 09:44:05;;;;;;;17.92;3.70;;;11.90;76.40;;;;;;6098108;23;92504;-71
2022/01/03 09:46:35;;;;;;;21.77;4.43;;;11.90;76.50;;;;;;6125048;23;91687;-72
2022/01/03 09:49:04;;;;;;;18.33;3.97;;;11.90;76.50;;;;;;6124386;23;92771;-72
2022/01/03 09:51:32;;;;;;;19.70;3.78;;;12.00;76.50;;;;;;6124677;23;92526;-72
2022/01/03 09:54:03;;;;;;;17.48;3.78;;;12.00;76.70;;;;;;6122795;23;94807;-71
2022/01/03 09:56:32;;;;;;;18.42;3.33;;;12.00;76.50;;;;;;6123077;23;92901;-72
2022/01/03 09:59:00;;;;;;;18.92;4.32;;;12.00;76.60;;;;;;6124757;23;92697;-71
2022/01/03 10:01:29;;;;;;;21.52;4.78;;;12.10;76.20;;;;;;6124870;23;92344;-71
2022/01/03 10:03:57;;;;;;;21.50;4.38;;;12.10;75.70;;;;;;6124742;23;92485;-72
2022/01/03 10:06:25;;;;;;;20.58;4.78;;;12.20;75.50;;;;;;6123782;23;103289;-72
2022/01/03 10:08:52;;;;;;;17.60;2.72;;;12.20;75.30;;;;;;6124783;23;92431;-72
2022/01/03 10:11:21;;;;;;;15.65;3.72;;;12.30;74.60;;;;;;6123710;23;91668;-71
2022/01/03 10:13:50;;;;;;;16.17;2.83;;;12.30;74.50;;;;;;6098500;23;92658;-72
2022/01/03 10:16:17;;;;;;;18.77;4.03;;;12.30;74.20;;;;;;6124137;23;93144;-75
2022/01/03 10:19:04;;;;;;;18.58;4.13;;;12.30;74.40;;;;;;6100923;23;94838;-75
2022/01/03 10:21:51;;;;;;;22.00;4.10;;;12.30;74.30;;;;;;6124495;23;92370;-75
2022/01/03 10:24:30;;;;;;;18.02;3.50;;;12.40;73.80;;;;;;6094152;23;92932;-76
2022/01/03 10:26:57;;;;;;;17.83;4.03;;;12.40;73.90;;;;;;6147743;22;94164;-75
2022/01/03 10:29:27;;;;;;;18.83;4.50;;;12.40;74.10;;;;;;6098101;23;92760;-76
2022/01/03 10:31:56;;;;;;;17.75;3.83;;;12.40;73.80;;;;;;6122825;23;92617;-76
2022/01/03 10:34:24;;;;;;;16.90;4.20;;;12.50;73.90;;;;;;6124153;23;92425;-76
2022/01/03 10:36:53;;;;;;;22.13;5.32;;;12.50;73.40;;;;;;6124751;23;91656;-75
2022/01/03 10:39:26;;;;;;;23.17;3.85;;;12.50;73.80;;;;;;6097227;23;93216;-72
2022/01/03 10:42:19;;;;;;;18.33;3.63;;;12.50;73.60;;;;;;6124572;23;92422;-72
2022/01/03 10:44:47;;;;;;;17.60;3.03;;;12.60;73.40;;;;;;6123043;23;95103;-72
2022/01/03 10:47:30;;;;;;;23.65;3.55;;;12.50;73.40;;;;;;6123930;23;92925;-72
2022/01/03 10:49:57;;;;;;;16.83;3.80;;;12.60;72.90;;;;;;6124281;23;93114;-72
2022/01/03 10:52:28;;;;;;;19.08;4.30;;;12.50;73.40;;;;;;6097324;23;92504;-71
2022/01/03 10:55:11;;;;;;;18.05;3.42;;;12.50;73.60;;;;;;6122435;23;92456;-72
2022/01/03 10:57:57;;;;;;;17.75;4.35;;;12.60;73.50;;;;;;6124883;23;93088;-72
2022/01/03 11:00:29;;;;;;;16.08;3.55;;;12.60;73.10;;;;;;6124645;23;92696;-72
2022/01/03 11:05:53;;;;;;;21.33;3.92;;;12.60;72.90;;;;;;6123103;23;92400;-72
2022/01/03 11:11:09;;;;;;;23.95;4.38;;;12.60;73.10;;;;;;6122876;23;94938;-71
2022/01/03 11:13:47;;;;;;;19.23;3.70;;;12.50;73.30;;;;;;6124704;23;92384;-72
2022/01/03 11:16:14;;;;;;;20.00;3.15;;;12.60;72.80;;;;;;6147796;22;92395;-72
2022/01/03 11:18:49;;;;;;;21.88;3.85;;;12.60;72.80;;;;;;6122699;23;93052;-72
2022/01/03 11:21:18;;;;;;;19.35;3.72;;;12.60;72.90;;;;;;6124122;23;92707;-72
2022/01/03 11:23:58;;;;;;;19.90;3.55;;;12.60;73.10;;;;;;6124660;23;92433;-72
2022/01/03 11:26:27;;;;;;;16.77;4.38;;;12.60;72.00;;;;;;6124238;23;92327;-72
2022/01/03 11:28:54;;;;;;;20.10;4.20;;;12.60;72.40;;;;;;6124558;23;92325;-72
2022/01/03 11:31:21;;;;;;;16.52;3.35;;;12.60;71.90;;;;;;6097995;23;92450;-72
2022/01/03 11:33:51;;;;;;;16.20;3.38;;;12.70;71.70;;;;;;6124379;23;92353;-72
2022/01/03 11:36:40;;;;;;;17.00;3.92;;;12.70;71.60;;;;;;6123266;23;94835;-72
2022/01/03 11:39:10;;;;;;;16.30;3.70;;;12.80;71.80;;;;;;6124125;23;93007;-72
2022/01/03 11:41:40;;;;;;;18.88;3.35;;;12.80;71.70;;;;;;6122197;23;94478;-72
2022/01/03 11:44:11;;;;;;;16.88;3.03;;;12.80;71.50;;;;;;6124271;23;92857;-72
2022/01/03 11:46:41;;;;;;;15.15;3.05;;;12.80;71.10;;;;;;6147555;22;92449;-72
2022/01/03 11:49:09;;;;;;;13.82;3.15;;;12.90;71.00;;;;;;6122417;23;92386;-71
2022/01/03 11:51:37;;;;;;;18.73;3.10;;;12.90;70.50;;;;;;6123579;23;99295;-72
2022/01/03 11:54:09;;;;;;;17.35;3.65;;;13.00;70.60;;;;;;6123022;23;92172;-72
2022/01/03 11:56:43;;;;;;;18.35;3.65;;;12.90;70.50;;;;;;6124097;23;92665;-72
2022/01/03 12:04:57;;;;;;;18.27;3.47;;;12.90;70.60;;;;;;6125699;23;92804;-72
2022/01/03 12:07:24;;;;;;;18.08;4.13;;;12.90;70.70;;;;;;6125338;23;92845;-72
2022/01/03 12:09:54;;;;;;;18.83;3.38;;;12.80;70.80;;;;;;6098815;23;95721;-72
2022/01/03 12:12:35;;;;;;;17.17;3.40;;;12.80;71.10;;;;;;6099308;23;92770;-72
2022/01/03 12:15:04;;;;;;;19.33;3.92;;;12.90;70.70;;;;;;6125594;23;92848;-72
2022/01/03 12:17:43;;;;;;;19.13;3.92;;;13.00;70.60;;;;;;6125177;23;92482;-72
2022/01/03 12:20:10;;;;;;;14.50;3.38;;;13.00;71.10;;;;;;6125987;23;92200;-72
2022/01/03 12:22:51;;;;;;;20.65;3.42;;;13.00;70.70;;;;;;6124869;23;92482;-71
2022/01/03 12:25:31;;;;;;;16.42;4.22;;;13.00;70.90;;;;;;6099060;23;92436;-72
2022/01/03 12:28:04;;;;;;;21.05;3.50;;;13.10;70.90;;;;;;6097886;23;94899;-72
2022/01/03 12:30:35;;;;;;;18.20;4.07;;;13.10;70.90;;;;;;6124880;23;92921;-71
2022/01/03 12:33:08;;;;;;;20.80;3.90;;;13.10;71.00;;;;;;6098668;23;93780;-72
2022/01/03 12:35:40;;;;;;;19.98;3.97;;;13.10;70.70;;;;;;6148038;22;92459;-72
2022/01/03 12:38:10;;;;;;;15.93;3.55;;;13.20;71.00;;;;;;6098691;23;92409;-72
2022/01/03 12:40:47;;;;;;;18.70;4.15;;;13.20;70.70;;;;;;6147952;22;94270;-71
2022/01/03 12:43:31;;;;;;;25.73;4.95;;;13.20;70.40;;;;;;6125398;23;92674;-72
2022/01/03 12:45:58;;;;;;;18.17;3.93;;;13.20;71.40;;;;;;6099007;23;91620;-72
2022/01/03 12:48:25;;;;;;;21.30;4.13;;;13.10;70.60;;;;;;6124899;23;92395;-72
2022/01/03 12:50:52;;;;;;;16.20;3.05;;;13.10;70.30;;;;;;6125054;23;92464;-72
2022/01/03 12:53:31;;;;;;;24.90;4.97;;;13.20;69.80;;;;;;6123029;23;94866;-72
2022/01/03 12:56:02;;;;;;;21.95;4.03;;;13.20;69.80;;;;;;6118729;23;92353;-72
2022/01/03 12:58:29;;;;;;;19.13;3.80;;;13.10;69.50;;;;;;6117882;23;92559;-71
2022/01/03 13:00:58;;;;;;;24.63;8.48;;;13.10;69.80;;;;;;6095255;23;93610;-72
2022/01/03 13:03:42;;;;;;;21.40;4.55;;;13.10;69.60;;;;;;6094770;23;92770;-71
2022/01/03 13:06:13;;;;;;;;;;;13.20;69.80;;;;;;6095965;23;92330;-72
2022/01/03 13:09:01;;;;;;;18.98;3.92;;;13.00;70.20;;;;;;6096469;23;92357;-72
2022/01/03 13:11:34;;;;;;;13.88;3.78;;;13.00;69.90;;;;;;6093611;23;91624;-72
2022/01/03 13:14:12;;;;;;;18.17;3.40;;;13.00;69.80;;;;;;6095238;23;92467;-71
2022/01/03 13:16:46;;;;;;;20.25;4.90;;;13.00;70.10;;;;;;6094942;23;92264;-72